sensor_id;sensor_type;location;lat;lon;timestamp;P1;durP1;ratioP1;P2;durP2;ratioP2
84284;SDS011;74441;49.470;11.032;2024-02-26T00:00:31;5.03;;;3.50;;
84284;SDS011;74441;49.470;11.032;2024-02-26T00:02:57;5.25;;;3.63;;
84284;SDS011;74441;49.470;11.032;2024-02-26T00:05:22;5.20;;;3.90;;
84284;SDS011;74441;49.470;11.032;2024-02-26T00:07:48;4.40;;;3.30;;
84284;SDS011;74441;49.470;11.032;2024-02-26T00:10:14;5.30;;;3.95;;
84284;SDS011;74441;49.470;11.032;2024-02-26T00:12:39;4.30;;;3.08;;
84284;SDS011;74441;49.470;11.032;2024-02-26T00:15:08;5.20;;;3.45;;
84284;SDS011;74441;49.470;11.032;2024-02-26T00:17:33;3.75;;;2.83;;
84284;SDS011;74441;49.470;11.032;2024-02-26T00:19:59;4.97;;;2.97;;
84284;SDS011;74441;49.470;11.032;2024-02-26T00:22:25;4.13;;;3.00;;
84284;SDS011;74441;49.470;11.032;2024-02-26T00:24:51;4.18;;;3.13;;
84284;SDS011;74441;49.470;11.032;2024-02-26T00:27:16;4.60;;;3.50;;
84284;SDS011;74441;49.470;11.032;2024-02-26T00:29:42;4.80;;;3.40;;
84284;SDS011;74441;49.470;11.032;2024-02-26T00:32:07;6.17;;;3.20;;
84284;SDS011;74441;49.470;11.032;2024-02-26T00:34:32;4.70;;;3.15;;
84284;SDS011;74441;49.470;11.032;2024-02-26T00:36:58;5.53;;;3.53;;
84284;SDS011;74441;49.470;11.032;2024-02-26T00:39:23;6.97;;;3.72;;
84284;SDS011;74441;49.470;11.032;2024-02-26T00:41:49;4.30;;;3.27;;
84284;SDS011;74441;49.470;11.032;2024-02-26T00:44:16;4.78;;;3.42;;
84284;SDS011;74441;49.470;11.032;2024-02-26T00:46:41;5.47;;;3.55;;
84284;SDS011;74441;49.470;11.032;2024-02-26T00:49:07;5.80;;;3.63;;
84284;SDS011;74441;49.470;11.032;2024-02-26T00:51:32;5.23;;;3.47;;
84284;SDS011;74441;49.470;11.032;2024-02-26T00:53:57;5.30;;;3.77;;
84284;SDS011;74441;49.470;11.032;2024-02-26T00:56:23;6.28;;;3.88;;
84284;SDS011;74441;49.470;11.032;2024-02-26T00:58:48;6.60;;;4.25;;
84284;SDS011;74441;49.470;11.032;2024-02-26T01:01:13;6.13;;;4.20;;
84284;SDS011;74441;49.470;11.032;2024-02-26T01:03:39;5.63;;;3.95;;
84284;SDS011;74441;49.470;11.032;2024-02-26T01:06:04;5.30;;;3.87;;
84284;SDS011;74441;49.470;11.032;2024-02-26T01:08:29;5.80;;;4.20;;
84284;SDS011;74441;49.470;11.032;2024-02-26T01:10:56;7.07;;;3.92;;
84284;SDS011;74441;49.470;11.032;2024-02-26T01:13:21;8.63;;;4.20;;
84284;SDS011;74441;49.470;11.032;2024-02-26T01:15:47;6.70;;;4.35;;
84284;SDS011;74441;49.470;11.032;2024-02-26T01:18:12;5.88;;;3.95;;
84284;SDS011;74441;49.470;11.032;2024-02-26T01:20:37;7.53;;;4.40;;
84284;SDS011;74441;49.470;11.032;2024-02-26T01:23:03;5.70;;;4.30;;
84284;SDS011;74441;49.470;11.032;2024-02-26T01:25:28;5.25;;;4.30;;
84284;SDS011;74441;49.470;11.032;2024-02-26T01:27:53;6.90;;;4.15;;
84284;SDS011;74441;49.470;11.032;2024-02-26T01:30:19;6.32;;;4.45;;
84284;SDS011;74441;49.470;11.032;2024-02-26T01:32:45;5.95;;;4.40;;
84284;SDS011;74441;49.470;11.032;2024-02-26T01:35:10;5.88;;;4.35;;
84284;SDS011;74441;49.470;11.032;2024-02-26T01:37:36;6.47;;;4.47;;
84284;SDS011;74441;49.470;11.032;2024-02-26T01:40:02;7.07;;;4.53;;
84284;SDS011;74441;49.470;11.032;2024-02-26T01:42:31;7.00;;;4.57;;
84284;SDS011;74441;49.470;11.032;2024-02-26T01:44:57;6.03;;;4.57;;
84284;SDS011;74441;49.470;11.032;2024-02-26T01:47:23;7.63;;;4.97;;
84284;SDS011;74441;49.470;11.032;2024-02-26T01:49:48;6.45;;;4.80;;
84284;SDS011;74441;49.470;11.032;2024-02-26T01:52:14;7.63;;;5.10;;
84284;SDS011;74441;49.470;11.032;2024-02-26T01:54:40;7.95;;;5.05;;
84284;SDS011;74441;49.470;11.032;2024-02-26T01:57:05;7.50;;;5.05;;
84284;SDS011;74441;49.470;11.032;2024-02-26T01:59:32;8.57;;;5.35;;
84284;SDS011;74441;49.470;11.032;2024-02-26T02:01:59;8.18;;;5.10;;
84284;SDS011;74441;49.470;11.032;2024-02-26T02:04:26;7.85;;;5.60;;
84284;SDS011;74441;49.470;11.032;2024-02-26T02:06:52;7.68;;;5.40;;
84284;SDS011;74441;49.470;11.032;2024-02-26T02:09:17;8.68;;;4.90;;
84284;SDS011;74441;49.470;11.032;2024-02-26T02:11:43;7.80;;;4.82;;
84284;SDS011;74441;49.470;11.032;2024-02-26T02:14:09;8.57;;;5.57;;
84284;SDS011;74441;49.470;11.032;2024-02-26T02:16:34;7.50;;;4.82;;
84284;SDS011;74441;49.470;11.032;2024-02-26T02:19:00;9.60;;;5.33;;
84284;SDS011;74441;49.470;11.032;2024-02-26T02:21:25;7.80;;;5.33;;
84284;SDS011;74441;49.470;11.032;2024-02-26T02:23:50;7.67;;;5.43;;
84284;SDS011;74441;49.470;11.032;2024-02-26T02:26:16;8.02;;;5.25;;
84284;SDS011;74441;49.470;11.032;2024-02-26T02:28:41;8.77;;;5.28;;
84284;SDS011;74441;49.470;11.032;2024-02-26T02:31:07;8.40;;;5.68;;
84284;SDS011;74441;49.470;11.032;2024-02-26T02:33:32;8.95;;;5.40;;
84284;SDS011;74441;49.470;11.032;2024-02-26T02:35:58;7.03;;;5.53;;
84284;SDS011;74441;49.470;11.032;2024-02-26T02:38:24;7.43;;;5.50;;
84284;SDS011;74441;49.470;11.032;2024-02-26T02:40:54;8.60;;;4.93;;
84284;SDS011;74441;49.470;11.032;2024-02-26T02:43:19;7.80;;;5.07;;
84284;SDS011;74441;49.470;11.032;2024-02-26T02:45:44;6.80;;;5.00;;
84284;SDS011;74441;49.470;11.032;2024-02-26T02:48:12;7.90;;;5.17;;
84284;SDS011;74441;49.470;11.032;2024-02-26T02:50:38;7.22;;;5.22;;
84284;SDS011;74441;49.470;11.032;2024-02-26T02:53:04;8.52;;;5.15;;
84284;SDS011;74441;49.470;11.032;2024-02-26T02:55:29;7.30;;;5.22;;
84284;SDS011;74441;49.470;11.032;2024-02-26T02:57:54;6.73;;;5.03;;
84284;SDS011;74441;49.470;11.032;2024-02-26T03:00:20;7.85;;;4.93;;
84284;SDS011;74441;49.470;11.032;2024-02-26T03:02:47;7.38;;;5.47;;
84284;SDS011;74441;49.470;11.032;2024-02-26T03:05:13;7.15;;;5.00;;
84284;SDS011;74441;49.470;11.032;2024-02-26T03:07:38;7.68;;;4.90;;
84284;SDS011;74441;49.470;11.032;2024-02-26T03:10:03;6.87;;;4.90;;
84284;SDS011;74441;49.470;11.032;2024-02-26T03:12:29;7.28;;;4.88;;
84284;SDS011;74441;49.470;11.032;2024-02-26T03:14:55;6.95;;;4.60;;
84284;SDS011;74441;49.470;11.032;2024-02-26T03:17:20;7.90;;;5.07;;
84284;SDS011;74441;49.470;11.032;2024-02-26T03:19:46;6.85;;;4.88;;
84284;SDS011;74441;49.470;11.032;2024-02-26T03:22:12;6.95;;;4.80;;
84284;SDS011;74441;49.470;11.032;2024-02-26T03:27:05;8.27;;;5.40;;
84284;SDS011;74441;49.470;11.032;2024-02-26T03:29:34;6.55;;;4.65;;
84284;SDS011;74441;49.470;11.032;2024-02-26T03:32:00;7.82;;;4.95;;
84284;SDS011;74441;49.470;11.032;2024-02-26T03:34:26;7.38;;;4.40;;
84284;SDS011;74441;49.470;11.032;2024-02-26T03:36:52;6.15;;;4.43;;
84284;SDS011;74441;49.470;11.032;2024-02-26T03:39:17;6.28;;;4.78;;
84284;SDS011;74441;49.470;11.032;2024-02-26T03:41:42;7.53;;;5.00;;
84284;SDS011;74441;49.470;11.032;2024-02-26T03:44:08;6.30;;;4.80;;
84284;SDS011;74441;49.470;11.032;2024-02-26T03:46:33;6.33;;;4.80;;
84284;SDS011;74441;49.470;11.032;2024-02-26T03:48:58;7.60;;;5.00;;
84284;SDS011;74441;49.470;11.032;2024-02-26T03:51:23;6.53;;;4.45;;
84284;SDS011;74441;49.470;11.032;2024-02-26T03:53:49;6.80;;;4.23;;
84284;SDS011;74441;49.470;11.032;2024-02-26T03:56:14;6.70;;;4.40;;
84284;SDS011;74441;49.470;11.032;2024-02-26T03:58:39;7.30;;;4.75;;
84284;SDS011;74441;49.470;11.032;2024-02-26T04:01:08;8.20;;;4.70;;
84284;SDS011;74441;49.470;11.032;2024-02-26T04:03:34;5.82;;;4.15;;
84284;SDS011;74441;49.470;11.032;2024-02-26T04:05:59;6.53;;;5.10;;
84284;SDS011;74441;49.470;11.032;2024-02-26T04:08:24;6.43;;;4.77;;
84284;SDS011;74441;49.470;11.032;2024-02-26T04:10:50;7.22;;;4.63;;
84284;SDS011;74441;49.470;11.032;2024-02-26T04:13:15;6.78;;;4.60;;
84284;SDS011;74441;49.470;11.032;2024-02-26T04:15:42;6.78;;;4.60;;
84284;SDS011;74441;49.470;11.032;2024-02-26T04:18:07;7.00;;;4.53;;
84284;SDS011;74441;49.470;11.032;2024-02-26T04:20:33;7.22;;;4.93;;
84284;SDS011;74441;49.470;11.032;2024-02-26T04:22:58;8.38;;;4.78;;
84284;SDS011;74441;49.470;11.032;2024-02-26T04:25:23;7.37;;;4.30;;
84284;SDS011;74441;49.470;11.032;2024-02-26T04:27:49;6.78;;;4.70;;
84284;SDS011;74441;49.470;11.032;2024-02-26T04:30:14;6.90;;;4.47;;
84284;SDS011;74441;49.470;11.032;2024-02-26T04:32:39;7.43;;;4.57;;
84284;SDS011;74441;49.470;11.032;2024-02-26T04:35:05;8.17;;;4.87;;
84284;SDS011;74441;49.470;11.032;2024-02-26T04:37:30;6.78;;;4.70;;
84284;SDS011;74441;49.470;11.032;2024-02-26T04:39:57;6.90;;;5.10;;
84284;SDS011;74441;49.470;11.032;2024-02-26T04:42:24;6.72;;;4.72;;
84284;SDS011;74441;49.470;11.032;2024-02-26T04:44:49;6.10;;;4.03;;
84284;SDS011;74441;49.470;11.032;2024-02-26T04:47:14;6.60;;;4.67;;
84284;SDS011;74441;49.470;11.032;2024-02-26T04:49:40;5.32;;;4.10;;
84284;SDS011;74441;49.470;11.032;2024-02-26T04:52:05;6.93;;;4.30;;
84284;SDS011;74441;49.470;11.032;2024-02-26T04:54:31;6.03;;;4.27;;
84284;SDS011;74441;49.470;11.032;2024-02-26T04:56:59;6.88;;;4.22;;
84284;SDS011;74441;49.470;11.032;2024-02-26T04:59:24;6.82;;;4.70;;
84284;SDS011;74441;49.470;11.032;2024-02-26T05:01:50;5.68;;;4.55;;
84284;SDS011;74441;49.470;11.032;2024-02-26T05:04:17;7.18;;;5.05;;
84284;SDS011;74441;49.470;11.032;2024-02-26T05:06:43;8.60;;;5.75;;
84284;SDS011;74441;49.470;11.032;2024-02-26T05:09:08;7.47;;;5.00;;
84284;SDS011;74441;49.470;11.032;2024-02-26T05:11:33;7.47;;;5.00;;
84284;SDS011;74441;49.470;11.032;2024-02-26T05:13:59;7.05;;;4.70;;
84284;SDS011;74441;49.470;11.032;2024-02-26T05:16:25;8.07;;;5.70;;
84284;SDS011;74441;49.470;11.032;2024-02-26T05:18:52;6.13;;;4.55;;
84284;SDS011;74441;49.470;11.032;2024-02-26T05:21:17;6.85;;;4.95;;
84284;SDS011;74441;49.470;11.032;2024-02-26T05:23:42;6.13;;;4.60;;
84284;SDS011;74441;49.470;11.032;2024-02-26T05:26:08;9.18;;;5.38;;
84284;SDS011;74441;49.470;11.032;2024-02-26T05:28:34;7.65;;;5.00;;
84284;SDS011;74441;49.470;11.032;2024-02-26T05:30:59;7.85;;;4.75;;
84284;SDS011;74441;49.470;11.032;2024-02-26T05:33:25;9.30;;;6.15;;
84284;SDS011;74441;49.470;11.032;2024-02-26T05:35:50;7.03;;;4.90;;
84284;SDS011;74441;49.470;11.032;2024-02-26T05:38:15;6.23;;;4.30;;
84284;SDS011;74441;49.470;11.032;2024-02-26T05:40:41;7.25;;;4.63;;
84284;SDS011;74441;49.470;11.032;2024-02-26T05:43:06;7.13;;;4.30;;
84284;SDS011;74441;49.470;11.032;2024-02-26T05:45:31;5.90;;;4.30;;
84284;SDS011;74441;49.470;11.032;2024-02-26T05:47:58;9.15;;;5.30;;
84284;SDS011;74441;49.470;11.032;2024-02-26T05:50:23;7.22;;;4.60;;
84284;SDS011;74441;49.470;11.032;2024-02-26T05:52:48;7.87;;;4.57;;
84284;SDS011;74441;49.470;11.032;2024-02-26T05:55:13;8.07;;;5.17;;
84284;SDS011;74441;49.470;11.032;2024-02-26T05:57:39;6.43;;;4.22;;
84284;SDS011;74441;49.470;11.032;2024-02-26T06:00:04;6.07;;;4.47;;
84284;SDS011;74441;49.470;11.032;2024-02-26T06:02:30;7.13;;;4.40;;
84284;SDS011;74441;49.470;11.032;2024-02-26T06:04:56;5.80;;;4.10;;
84284;SDS011;74441;49.470;11.032;2024-02-26T06:07:22;5.50;;;3.95;;
84284;SDS011;74441;49.470;11.032;2024-02-26T06:09:48;7.75;;;4.18;;
84284;SDS011;74441;49.470;11.032;2024-02-26T06:12:13;5.45;;;3.47;;
84284;SDS011;74441;49.470;11.032;2024-02-26T06:14:39;5.55;;;3.83;;
84284;SDS011;74441;49.470;11.032;2024-02-26T06:17:04;8.57;;;5.73;;
84284;SDS011;74441;49.470;11.032;2024-02-26T06:19:29;10.52;;;6.90;;
84284;SDS011;74441;49.470;11.032;2024-02-26T06:21:54;8.40;;;5.45;;
84284;SDS011;74441;49.470;11.032;2024-02-26T06:24:20;5.67;;;3.77;;
84284;SDS011;74441;49.470;11.032;2024-02-26T06:26:47;6.82;;;4.10;;
84284;SDS011;74441;49.470;11.032;2024-02-26T06:29:12;6.50;;;5.00;;
84284;SDS011;74441;49.470;11.032;2024-02-26T06:31:38;7.03;;;4.50;;
84284;SDS011;74441;49.470;11.032;2024-02-26T06:34:03;5.80;;;4.05;;
84284;SDS011;74441;49.470;11.032;2024-02-26T06:36:28;4.55;;;3.08;;
84284;SDS011;74441;49.470;11.032;2024-02-26T06:38:54;4.45;;;2.78;;
84284;SDS011;74441;49.470;11.032;2024-02-26T06:41:19;3.78;;;2.90;;
84284;SDS011;74441;49.470;11.032;2024-02-26T06:43:45;4.22;;;3.35;;
84284;SDS011;74441;49.470;11.032;2024-02-26T06:46:10;5.33;;;2.90;;
84284;SDS011;74441;49.470;11.032;2024-02-26T06:48:36;5.82;;;3.25;;
84284;SDS011;74441;49.470;11.032;2024-02-26T06:51:02;4.82;;;3.15;;
84284;SDS011;74441;49.470;11.032;2024-02-26T06:53:27;4.72;;;3.33;;
84284;SDS011;74441;49.470;11.032;2024-02-26T06:55:52;5.63;;;3.88;;
84284;SDS011;74441;49.470;11.032;2024-02-26T06:58:18;5.53;;;3.97;;
84284;SDS011;74441;49.470;11.032;2024-02-26T07:00:43;6.30;;;3.85;;
84284;SDS011;74441;49.470;11.032;2024-02-26T07:03:09;8.15;;;5.53;;
84284;SDS011;74441;49.470;11.032;2024-02-26T07:05:34;10.07;;;6.13;;
84284;SDS011;74441;49.470;11.032;2024-02-26T07:07:59;6.70;;;5.07;;
84284;SDS011;74441;49.470;11.032;2024-02-26T07:10:25;7.80;;;5.13;;
84284;SDS011;74441;49.470;11.032;2024-02-26T07:12:50;6.50;;;3.90;;
84284;SDS011;74441;49.470;11.032;2024-02-26T07:15:15;7.37;;;5.07;;
84284;SDS011;74441;49.470;11.032;2024-02-26T07:17:41;6.05;;;4.40;;
84284;SDS011;74441;49.470;11.032;2024-02-26T07:20:07;4.82;;;3.78;;
84284;SDS011;74441;49.470;11.032;2024-02-26T07:22:33;5.40;;;3.95;;
84284;SDS011;74441;49.470;11.032;2024-02-26T07:24:59;5.60;;;4.10;;
84284;SDS011;74441;49.470;11.032;2024-02-26T07:27:24;6.97;;;4.37;;
84284;SDS011;74441;49.470;11.032;2024-02-26T07:29:49;7.20;;;4.53;;
84284;SDS011;74441;49.470;11.032;2024-02-26T07:32:15;6.22;;;3.88;;
84284;SDS011;74441;49.470;11.032;2024-02-26T07:34:40;6.50;;;3.92;;
84284;SDS011;74441;49.470;11.032;2024-02-26T07:37:09;4.18;;;3.13;;
84284;SDS011;74441;49.470;11.032;2024-02-26T07:39:35;6.28;;;3.75;;
84284;SDS011;74441;49.470;11.032;2024-02-26T07:42:00;4.70;;;4.00;;
84284;SDS011;74441;49.470;11.032;2024-02-26T07:44:26;5.72;;;3.33;;
84284;SDS011;74441;49.470;11.032;2024-02-26T07:46:51;3.83;;;3.17;;
84284;SDS011;74441;49.470;11.032;2024-02-26T07:49:16;4.65;;;3.30;;
84284;SDS011;74441;49.470;11.032;2024-02-26T07:51:42;5.53;;;3.70;;
84284;SDS011;74441;49.470;11.032;2024-02-26T07:54:07;4.30;;;3.40;;
84284;SDS011;74441;49.470;11.032;2024-02-26T07:56:33;5.70;;;3.53;;
84284;SDS011;74441;49.470;11.032;2024-02-26T07:58:58;5.38;;;3.45;;
84284;SDS011;74441;49.470;11.032;2024-02-26T08:01:23;6.45;;;4.60;;
84284;SDS011;74441;49.470;11.032;2024-02-26T08:03:50;6.63;;;4.32;;
84284;SDS011;74441;49.470;11.032;2024-02-26T08:06:16;6.67;;;3.50;;
84284;SDS011;74441;49.470;11.032;2024-02-26T08:08:41;6.25;;;4.35;;
84284;SDS011;74441;49.470;11.032;2024-02-26T08:11:07;5.50;;;4.13;;
84284;SDS011;74441;49.470;11.032;2024-02-26T08:13:33;5.45;;;3.75;;
84284;SDS011;74441;49.470;11.032;2024-02-26T08:15:59;6.68;;;3.58;;
84284;SDS011;74441;49.470;11.032;2024-02-26T08:18:24;6.37;;;4.33;;
84284;SDS011;74441;49.470;11.032;2024-02-26T08:20:49;5.97;;;3.63;;
84284;SDS011;74441;49.470;11.032;2024-02-26T08:23:15;6.10;;;3.90;;
84284;SDS011;74441;49.470;11.032;2024-02-26T08:25:45;6.28;;;3.58;;
84284;SDS011;74441;49.470;11.032;2024-02-26T08:28:10;4.93;;;3.28;;
84284;SDS011;74441;49.470;11.032;2024-02-26T08:30:39;4.70;;;3.13;;
84284;SDS011;74441;49.470;11.032;2024-02-26T08:33:04;4.68;;;3.10;;
84284;SDS011;74441;49.470;11.032;2024-02-26T08:35:29;3.92;;;3.20;;
84284;SDS011;74441;49.470;11.032;2024-02-26T08:37:55;5.10;;;3.53;;
84284;SDS011;74441;49.470;11.032;2024-02-26T08:40:20;4.75;;;3.30;;
84284;SDS011;74441;49.470;11.032;2024-02-26T08:42:46;5.18;;;3.35;;
84284;SDS011;74441;49.470;11.032;2024-02-26T08:45:11;5.07;;;3.33;;
84284;SDS011;74441;49.470;11.032;2024-02-26T08:47:37;5.15;;;3.20;;
84284;SDS011;74441;49.470;11.032;2024-02-26T08:50:03;5.32;;;3.30;;
84284;SDS011;74441;49.470;11.032;2024-02-26T08:52:28;4.65;;;3.33;;
84284;SDS011;74441;49.470;11.032;2024-02-26T08:54:54;6.47;;;3.73;;
84284;SDS011;74441;49.470;11.032;2024-02-26T08:57:19;5.57;;;3.20;;
84284;SDS011;74441;49.470;11.032;2024-02-26T08:59:45;6.32;;;3.20;;
84284;SDS011;74441;49.470;11.032;2024-02-26T09:02:10;5.47;;;3.65;;
84284;SDS011;74441;49.470;11.032;2024-02-26T09:04:35;5.40;;;3.63;;
84284;SDS011;74441;49.470;11.032;2024-02-26T09:07:01;5.57;;;3.80;;
84284;SDS011;74441;49.470;11.032;2024-02-26T09:09:27;5.90;;;3.78;;
84284;SDS011;74441;49.470;11.032;2024-02-26T09:11:52;6.38;;;4.05;;
84284;SDS011;74441;49.470;11.032;2024-02-26T09:14:18;5.65;;;3.83;;
84284;SDS011;74441;49.470;11.032;2024-02-26T09:16:43;6.05;;;4.28;;
84284;SDS011;74441;49.470;11.032;2024-02-26T09:19:09;5.57;;;4.05;;
84284;SDS011;74441;49.470;11.032;2024-02-26T09:21:34;5.32;;;3.70;;
84284;SDS011;74441;49.470;11.032;2024-02-26T09:23:59;4.75;;;4.00;;
84284;SDS011;74441;49.470;11.032;2024-02-26T09:26:25;6.33;;;3.93;;
84284;SDS011;74441;49.470;11.032;2024-02-26T09:28:50;5.17;;;3.87;;
84284;SDS011;74441;49.470;11.032;2024-02-26T09:31:17;5.30;;;3.90;;
84284;SDS011;74441;49.470;11.032;2024-02-26T09:33:42;5.10;;;3.50;;
84284;SDS011;74441;49.470;11.032;2024-02-26T09:36:08;5.25;;;3.90;;
84284;SDS011;74441;49.470;11.032;2024-02-26T09:38:35;4.85;;;3.53;;
84284;SDS011;74441;49.470;11.032;2024-02-26T09:41:03;6.43;;;3.85;;
84284;SDS011;74441;49.470;11.032;2024-02-26T09:43:34;6.65;;;3.88;;
84284;SDS011;74441;49.470;11.032;2024-02-26T09:46:01;4.88;;;3.42;;
84284;SDS011;74441;49.470;11.032;2024-02-26T09:48:27;4.88;;;3.20;;
84284;SDS011;74441;49.470;11.032;2024-02-26T09:50:53;4.05;;;3.20;;
84284;SDS011;74441;49.470;11.032;2024-02-26T09:53:18;5.87;;;3.17;;
84284;SDS011;74441;49.470;11.032;2024-02-26T09:55:46;5.05;;;3.45;;
84284;SDS011;74441;49.470;11.032;2024-02-26T09:58:12;5.35;;;3.58;;
84284;SDS011;74441;49.470;11.032;2024-02-26T10:00:43;4.28;;;3.00;;
84284;SDS011;74441;49.470;11.032;2024-02-26T10:03:13;6.55;;;4.60;;
84284;SDS011;74441;49.470;11.032;2024-02-26T10:08:06;4.37;;;3.30;;
84284;SDS011;74441;49.470;11.032;2024-02-26T10:10:31;4.93;;;2.90;;
84284;SDS011;74441;49.470;11.032;2024-02-26T10:12:58;4.82;;;3.35;;
84284;SDS011;74441;49.470;11.032;2024-02-26T10:15:24;4.93;;;3.80;;
84284;SDS011;74441;49.470;11.032;2024-02-26T10:17:50;5.38;;;3.85;;
84284;SDS011;74441;49.470;11.032;2024-02-26T10:20:16;4.72;;;3.17;;
84284;SDS011;74441;49.470;11.032;2024-02-26T10:22:42;5.05;;;3.47;;
84284;SDS011;74441;49.470;11.032;2024-02-26T10:25:08;6.53;;;4.32;;
84284;SDS011;74441;49.470;11.032;2024-02-26T10:27:34;5.65;;;4.00;;
84284;SDS011;74441;49.470;11.032;2024-02-26T10:30:42;5.22;;;3.58;;
84284;SDS011;74441;49.470;11.032;2024-02-26T10:32:50;5.25;;;3.38;;
84284;SDS011;74441;49.470;11.032;2024-02-26T10:35:16;4.95;;;3.53;;
84284;SDS011;74441;49.470;11.032;2024-02-26T10:37:42;5.05;;;3.80;;
84284;SDS011;74441;49.470;11.032;2024-02-26T10:40:11;5.43;;;3.60;;
84284;SDS011;74441;49.470;11.032;2024-02-26T10:42:37;6.05;;;3.33;;
84284;SDS011;74441;49.470;11.032;2024-02-26T10:47:35;5.60;;;3.47;;
84284;SDS011;74441;49.470;11.032;2024-02-26T10:50:04;6.53;;;3.70;;
84284;SDS011;74441;49.470;11.032;2024-02-26T10:52:34;5.72;;;3.30;;
84284;SDS011;74441;49.470;11.032;2024-02-26T10:55:01;5.28;;;3.38;;
84284;SDS011;74441;49.470;11.032;2024-02-26T10:57:29;4.28;;;3.20;;
84284;SDS011;74441;49.470;11.032;2024-02-26T10:59:57;6.03;;;3.33;;
84284;SDS011;74441;49.470;11.032;2024-02-26T11:02:23;6.28;;;3.30;;
84284;SDS011;74441;49.470;11.032;2024-02-26T11:04:48;4.47;;;2.88;;
84284;SDS011;74441;49.470;11.032;2024-02-26T11:07:18;4.97;;;3.70;;
84284;SDS011;74441;49.470;11.032;2024-02-26T11:09:44;4.30;;;3.22;;
84284;SDS011;74441;49.470;11.032;2024-02-26T11:12:12;5.15;;;3.40;;
84284;SDS011;74441;49.470;11.032;2024-02-26T11:14:42;4.10;;;3.25;;
84284;SDS011;74441;49.470;11.032;2024-02-26T11:17:08;4.93;;;3.05;;
84284;SDS011;74441;49.470;11.032;2024-02-26T11:19:34;4.60;;;2.97;;
84284;SDS011;74441;49.470;11.032;2024-02-26T11:22:00;4.82;;;2.97;;
84284;SDS011;74441;49.470;11.032;2024-02-26T11:24:26;3.90;;;3.15;;
84284;SDS011;74441;49.470;11.032;2024-02-26T11:26:56;3.72;;;2.85;;
84284;SDS011;74441;49.470;11.032;2024-02-26T11:29:27;3.60;;;2.80;;
84284;SDS011;74441;49.470;11.032;2024-02-26T11:31:55;4.25;;;2.83;;
84284;SDS011;74441;49.470;11.032;2024-02-26T11:34:20;5.85;;;2.97;;
84284;SDS011;74441;49.470;11.032;2024-02-26T11:36:46;4.78;;;3.20;;
84284;SDS011;74441;49.470;11.032;2024-02-26T11:39:11;4.53;;;2.85;;
84284;SDS011;74441;49.470;11.032;2024-02-26T11:41:38;5.43;;;3.00;;
84284;SDS011;74441;49.470;11.032;2024-02-26T11:44:03;3.42;;;2.47;;
84284;SDS011;74441;49.470;11.032;2024-02-26T11:46:34;3.58;;;2.80;;
84284;SDS011;74441;49.470;11.032;2024-02-26T11:51:50;3.88;;;3.00;;
84284;SDS011;74441;49.470;11.032;2024-02-26T11:54:37;4.55;;;2.50;;
84284;SDS011;74441;49.470;11.032;2024-02-26T12:00:14;3.63;;;2.70;;
84284;SDS011;74441;49.470;11.032;2024-02-26T12:02:49;6.80;;;3.35;;
84284;SDS011;74441;49.470;11.032;2024-02-26T12:05:22;4.38;;;3.03;;
84284;SDS011;74441;49.470;11.032;2024-02-26T12:07:54;5.00;;;2.90;;
84284;SDS011;74441;49.470;11.032;2024-02-26T12:10:33;3.80;;;2.88;;
84284;SDS011;74441;49.470;11.032;2024-02-26T12:13:02;3.53;;;2.75;;
84284;SDS011;74441;49.470;11.032;2024-02-26T12:15:31;4.28;;;2.90;;
84284;SDS011;74441;49.470;11.032;2024-02-26T12:18:03;3.90;;;2.80;;
84284;SDS011;74441;49.470;11.032;2024-02-26T12:20:29;4.13;;;2.75;;
84284;SDS011;74441;49.470;11.032;2024-02-26T12:22:55;4.15;;;3.08;;
84284;SDS011;74441;49.470;11.032;2024-02-26T12:25:27;4.10;;;2.90;;
84284;SDS011;74441;49.470;11.032;2024-02-26T12:27:54;5.15;;;3.38;;
84284;SDS011;74441;49.470;11.032;2024-02-26T12:30:20;4.75;;;3.22;;
84284;SDS011;74441;49.470;11.032;2024-02-26T12:32:46;5.10;;;3.08;;
84284;SDS011;74441;49.470;11.032;2024-02-26T12:35:13;4.70;;;3.30;;
84284;SDS011;74441;49.470;11.032;2024-02-26T12:37:38;4.28;;;2.90;;
84284;SDS011;74441;49.470;11.032;2024-02-26T12:40:08;5.00;;;3.30;;
84284;SDS011;74441;49.470;11.032;2024-02-26T12:42:34;4.18;;;2.75;;
84284;SDS011;74441;49.470;11.032;2024-02-26T12:45:04;4.22;;;3.10;;
84284;SDS011;74441;49.470;11.032;2024-02-26T12:47:37;3.90;;;2.78;;
84284;SDS011;74441;49.470;11.032;2024-02-26T12:50:07;4.05;;;3.22;;
84284;SDS011;74441;49.470;11.032;2024-02-26T12:52:33;5.13;;;3.03;;
84284;SDS011;74441;49.470;11.032;2024-02-26T12:54:59;5.10;;;3.33;;
84284;SDS011;74441;49.470;11.032;2024-02-26T12:57:25;3.92;;;2.53;;
84284;SDS011;74441;49.470;11.032;2024-02-26T12:59:52;3.83;;;2.75;;
84284;SDS011;74441;49.470;11.032;2024-02-26T13:02:17;3.25;;;2.58;;
84284;SDS011;74441;49.470;11.032;2024-02-26T13:04:42;4.82;;;2.92;;
84284;SDS011;74441;49.470;11.032;2024-02-26T13:07:09;3.85;;;2.80;;
84284;SDS011;74441;49.470;11.032;2024-02-26T13:09:35;3.28;;;2.53;;
84284;SDS011;74441;49.470;11.032;2024-02-26T13:12:03;3.60;;;2.60;;
84284;SDS011;74441;49.470;11.032;2024-02-26T13:16:59;3.38;;;2.42;;
84284;SDS011;74441;49.470;11.032;2024-02-26T13:21:50;3.67;;;2.30;;
84284;SDS011;74441;49.470;11.032;2024-02-26T13:24:16;3.50;;;2.40;;
84284;SDS011;74441;49.470;11.032;2024-02-26T13:26:42;4.07;;;2.30;;
84284;SDS011;74441;49.470;11.032;2024-02-26T13:29:08;3.13;;;2.40;;
84284;SDS011;74441;49.470;11.032;2024-02-26T13:31:39;4.60;;;2.30;;
84284;SDS011;74441;49.470;11.032;2024-02-26T13:34:05;2.90;;;2.20;;
84284;SDS011;74441;49.470;11.032;2024-02-26T13:36:30;2.95;;;2.20;;
84284;SDS011;74441;49.470;11.032;2024-02-26T13:38:55;3.47;;;2.20;;
84284;SDS011;74441;49.470;11.032;2024-02-26T13:41:21;2.58;;;1.88;;
84284;SDS011;74441;49.470;11.032;2024-02-26T13:43:47;3.20;;;2.10;;
84284;SDS011;74441;49.470;11.032;2024-02-26T13:46:13;2.92;;;2.13;;
84284;SDS011;74441;49.470;11.032;2024-02-26T13:48:40;3.47;;;2.05;;
84284;SDS011;74441;49.470;11.032;2024-02-26T13:51:05;3.00;;;2.15;;
84284;SDS011;74441;49.470;11.032;2024-02-26T13:53:31;3.63;;;2.30;;
84284;SDS011;74441;49.470;11.032;2024-02-26T13:55:56;4.03;;;2.22;;
84284;SDS011;74441;49.470;11.032;2024-02-26T13:58:23;2.97;;;2.17;;
84284;SDS011;74441;49.470;11.032;2024-02-26T14:00:50;3.33;;;2.30;;
84284;SDS011;74441;49.470;11.032;2024-02-26T14:03:15;2.72;;;1.85;;
84284;SDS011;74441;49.470;11.032;2024-02-26T14:05:41;3.72;;;2.40;;
84284;SDS011;74441;49.470;11.032;2024-02-26T14:08:07;3.10;;;2.22;;
84284;SDS011;74441;49.470;11.032;2024-02-26T14:10:32;2.90;;;2.00;;
84284;SDS011;74441;49.470;11.032;2024-02-26T14:12:58;3.00;;;2.10;;
84284;SDS011;74441;49.470;11.032;2024-02-26T14:15:24;3.50;;;2.00;;
84284;SDS011;74441;49.470;11.032;2024-02-26T14:17:50;3.20;;;1.92;;
84284;SDS011;74441;49.470;11.032;2024-02-26T14:20:20;3.17;;;2.25;;
84284;SDS011;74441;49.470;11.032;2024-02-26T14:22:45;2.88;;;2.13;;
84284;SDS011;74441;49.470;11.032;2024-02-26T14:25:11;2.83;;;1.88;;
84284;SDS011;74441;49.470;11.032;2024-02-26T14:27:36;3.05;;;1.83;;
84284;SDS011;74441;49.470;11.032;2024-02-26T14:30:02;4.00;;;1.85;;
84284;SDS011;74441;49.470;11.032;2024-02-26T14:32:28;2.88;;;2.00;;
84284;SDS011;74441;49.470;11.032;2024-02-26T14:34:53;3.22;;;2.30;;
84284;SDS011;74441;49.470;11.032;2024-02-26T14:37:18;3.75;;;2.10;;
84284;SDS011;74441;49.470;11.032;2024-02-26T14:39:44;3.95;;;2.00;;
84284;SDS011;74441;49.470;11.032;2024-02-26T14:42:09;3.30;;;2.08;;
84284;SDS011;74441;49.470;11.032;2024-02-26T14:44:34;3.43;;;2.10;;